createdAt,value
2024-02-02T01:26:54.203Z,101646.27
2024-02-02T01:29:27.369Z,101657.64
2024-02-02T01:31:59.283Z,101661.54
2024-02-02T01:34:31.232Z,101666.27
2024-02-02T01:37:03.172Z,101666.40
2024-02-02T01:39:35.683Z,101666.21
2024-02-02T01:42:08.272Z,101678.14
2024-02-02T01:44:40.728Z,101682.77
2024-02-02T01:47:12.734Z,101683.39
2024-02-02T01:49:44.633Z,101693.52
2024-02-02T01:52:16.604Z,101695.85
2024-02-02T01:54:49.253Z,101698.15
2024-02-02T01:57:21.956Z,101693.27
2024-02-02T01:59:54.521Z,101690.48
2024-02-02T02:02:26.595Z,101678.98
2024-02-02T02:04:58.705Z,101676.02
2024-02-02T02:07:31.034Z,101669.58
2024-02-02T02:10:04.366Z,101672.11
2024-02-02T02:12:36.255Z,101676.02
2024-02-02T02:15:11.448Z,101677.59
2024-02-02T02:17:43.714Z,101685.73
2024-02-02T02:20:16.663Z,101695.75
2024-02-02T02:22:48.751Z,101695.13
2024-02-02T02:25:21.054Z,101699.58
2024-02-02T02:27:52.917Z,101696.81
2024-02-02T02:30:25.012Z,101694.57
2024-02-02T02:32:56.974Z,101691.46
2024-02-02T02:35:29.591Z,101686.55
2024-02-02T02:38:01.381Z,101695.03
2024-02-02T02:40:33.141Z,101685.59
2024-02-02T02:43:05.485Z,101680.65
2024-02-02T02:45:37.711Z,101683.52
2024-02-02T02:48:10.837Z,101683.40
2024-02-02T02:50:42.862Z,101693.46
2024-02-02T02:53:15.185Z,101696.27
2024-02-02T02:55:47.374Z,101696.60
2024-02-02T02:58:19.435Z,101695.23
2024-02-02T03:00:52.142Z,101695.21
2024-02-02T03:03:23.976Z,101702.98
2024-02-02T03:05:56.133Z,101700.48
2024-02-02T03:08:28.152Z,101692.45
2024-02-02T03:11:00.197Z,101689.64
2024-02-02T03:13:32.356Z,101692.49
2024-02-02T03:16:04.347Z,101694.50
2024-02-02T03:18:36.379Z,101690.33
2024-02-02T03:21:09.570Z,101692.45
2024-02-02T03:23:41.729Z,101687.23
2024-02-02T03:26:13.896Z,101689.34
2024-02-02T03:28:45.951Z,101697.58
2024-02-02T03:31:18.054Z,101699.61
2024-02-02T03:33:50.649Z,101709.48
2024-02-02T03:36:22.613Z,101706.61
2024-02-02T03:38:54.660Z,101702.30
2024-02-02T03:41:26.545Z,101713.64
2024-02-02T03:43:58.561Z,101722.30
2024-02-02T03:46:30.577Z,101729.48
2024-02-02T03:49:02.420Z,101735.70
2024-02-02T03:51:34.986Z,101737.23
2024-02-02T03:54:07.366Z,101745.45
2024-02-02T03:56:41.035Z,101745.30
2024-02-02T03:59:13.128Z,101746.99
2024-02-02T04:01:45.190Z,101751.00
2024-02-02T04:04:17.783Z,101742.00
2024-02-02T04:06:49.928Z,101737.75
2024-02-02T04:09:22.139Z,101737.55
2024-02-02T04:11:54.210Z,101737.11
2024-02-02T04:14:26.311Z,101737.75
2024-02-02T04:16:58.024Z,101741.01
2024-02-02T04:19:30.248Z,101741.73
2024-02-02T04:22:02.334Z,101744.63
2024-02-02T04:24:34.343Z,101746.96
2024-02-02T04:27:07.183Z,101745.52
2024-02-02T04:29:39.583Z,101742.77
2024-02-02T04:32:11.784Z,101743.73
2024-02-02T04:34:43.969Z,101742.59
2024-02-02T04:37:16.163Z,101737.60
2024-02-02T04:39:48.232Z,101736.96
2024-02-02T04:42:20.040Z,101732.36
2024-02-02T04:44:51.911Z,101737.68
2024-02-02T04:47:23.785Z,101743.43
2024-02-02T04:49:55.671Z,101745.45
2024-02-02T04:52:27.555Z,101753.05
2024-02-02T04:54:59.349Z,101751.73
2024-02-02T04:57:31.289Z,101754.27
2024-02-02T05:00:03.309Z,101761.93
2024-02-02T05:02:35.228Z,101762.07
2024-02-02T05:05:07.670Z,101760.83
2024-02-02T05:07:40.130Z,101764.71
2024-02-02T05:10:12.816Z,101762.22
2024-02-02T05:12:45.022Z,101765.88
2024-02-02T05:15:19.113Z,101758.85
2024-02-02T05:17:51.286Z,101765.24
2024-02-02T05:20:23.280Z,101768.75
2024-02-02T05:22:55.187Z,101772.50
2024-02-02T05:25:27.930Z,101773.64
2024-02-02T05:27:59.880Z,101776.94
2024-02-02T05:30:31.911Z,101774.85
2024-02-02T05:33:04.021Z,101771.84
2024-02-02T05:35:36.595Z,101767.83
2024-02-02T05:38:08.747Z,101767.53
2024-02-02T05:40:40.587Z,101767.79
2024-02-02T05:43:13.703Z,101765.41
2024-02-02T05:45:45.568Z,101757.92
2024-02-02T05:48:17.636Z,101758.33
2024-02-02T05:50:49.681Z,101759.14
2024-02-02T05:53:21.826Z,101758.41
2024-02-02T05:55:53.549Z,101763.11
2024-02-02T05:58:25.457Z,101763.75
2024-02-02T06:00:57.476Z,101769.36
2024-02-02T06:03:29.674Z,101769.06
2024-02-02T06:06:01.713Z,101767.27
2024-02-02T06:08:34.331Z,101768.17
2024-02-02T06:11:07.099Z,101768.27
2024-02-02T06:13:38.971Z,101767.59
2024-02-02T06:16:11.490Z,101772.58
2024-02-02T06:18:43.481Z,101773.48
2024-02-02T06:21:15.432Z,101778.07
2024-02-02T06:23:47.291Z,101777.19
2024-02-02T06:26:19.107Z,101779.20
2024-02-02T06:28:51.019Z,101781.27
2024-02-02T06:31:25.541Z,101779.43
2024-02-02T06:33:57.382Z,101780.61
2024-02-02T06:36:29.514Z,101777.63
2024-02-02T06:39:01.606Z,101775.38
2024-02-02T06:41:33.498Z,101780.43
2024-02-02T06:44:05.794Z,101790.23
2024-02-02T06:46:37.691Z,101787.43
2024-02-02T06:49:09.720Z,101789.48
2024-02-02T06:51:41.875Z,101789.86
2024-02-02T06:54:13.944Z,101791.74
2024-02-02T06:56:47.814Z,101795.41
2024-02-02T06:59:20.184Z,101794.22
2024-02-02T07:01:52.111Z,101790.75
2024-02-02T07:04:24.304Z,101794.90
2024-02-02T07:06:56.391Z,101798.34
2024-02-02T07:09:34.573Z,101801.36
2024-02-02T07:12:10.600Z,101797.33
2024-02-02T07:14:51.277Z,101792.66
2024-02-02T07:17:36.217Z,101796.97
2024-02-02T07:20:12.315Z,101797.71
2024-02-02T07:22:43.651Z,101798.07
2024-02-02T07:25:19.613Z,101795.20
2024-02-02T07:27:58.036Z,101789.41
2024-02-02T07:30:52.805Z,101788.18
2024-02-02T07:33:33.891Z,101784.45
2024-02-02T07:36:07.001Z,101778.71
2024-02-02T07:38:53.243Z,101776.25
2024-02-02T07:41:26.884Z,101774.77
2024-02-02T07:44:00.999Z,101776.73
2024-02-02T07:46:33.156Z,101769.65
2024-02-02T07:49:05.494Z,101767.96
2024-02-02T07:51:39.127Z,101767.92
2024-02-02T07:54:11.346Z,101763.00
2024-02-02T07:56:43.169Z,101765.55
2024-02-02T07:59:15.074Z,101769.95
2024-02-02T08:01:46.977Z,101765.27
2024-02-02T08:04:18.944Z,101762.42
2024-02-02T08:06:50.960Z,101757.60
2024-02-02T08:09:22.902Z,101758.67
2024-02-02T08:11:55.571Z,101754.02
2024-02-02T08:14:27.479Z,101752.77
2024-02-02T08:16:59.396Z,101743.73
2024-02-02T08:19:31.452Z,101742.45
2024-02-02T08:22:03.424Z,101738.05
2024-02-02T08:24:35.305Z,101741.05
2024-02-02T08:27:07.780Z,101742.67
2024-02-02T08:29:39.929Z,101740.50
2024-02-02T08:32:11.738Z,101740.02
2024-02-02T08:34:43.719Z,101742.80
2024-02-02T08:37:15.800Z,101743.50
2024-02-02T08:39:48.140Z,101740.79
2024-02-02T08:42:23.619Z,101739.36
2024-02-02T08:44:56.879Z,101734.39
2024-02-02T08:47:35.779Z,101737.79
2024-02-02T08:50:09.508Z,101746.75
2024-02-02T08:52:44.475Z,101751.81
2024-02-02T08:55:45.569Z,101749.28
2024-02-02T08:58:24.926Z,101741.20
2024-02-02T09:00:57.785Z,101732.92
2024-02-02T09:03:45.663Z,101732.66
2024-02-02T09:06:42.227Z,101729.64
2024-02-02T09:09:18.586Z,101733.11
2024-02-02T09:11:52.094Z,101731.49
2024-02-02T09:14:27.392Z,101732.80
2024-02-02T09:16:59.778Z,101734.16
2024-02-02T09:19:38.590Z,101732.90
2024-02-02T09:22:14.680Z,101723.77
2024-02-02T09:24:49.086Z,101720.58
2024-02-02T09:27:33.408Z,101719.89
2024-02-02T09:30:12.728Z,101716.88
2024-02-02T09:32:47.505Z,101710.91
2024-02-02T09:35:51.228Z,101706.59
2024-02-02T09:38:23.396Z,101705.83
2024-02-02T09:41:22.785Z,101714.49
2024-02-02T09:44:05.815Z,101716.32
2024-02-02T09:46:45.780Z,101709.11
2024-02-02T09:49:31.146Z,101699.33
2024-02-02T09:52:16.569Z,101696.11
2024-02-02T09:54:57.068Z,101695.65
2024-02-02T09:57:39.270Z,101687.66
2024-02-02T10:00:22.824Z,101676.65
2024-02-02T10:03:15.788Z,101669.52
2024-02-02T10:05:58.281Z,101667.10
2024-02-02T10:08:53.685Z,101669.42
2024-02-02T10:11:45.025Z,101666.30
2024-02-02T10:14:36.074Z,101673.09
2024-02-02T10:17:20.398Z,101671.59
2024-02-02T10:20:09.414Z,101663.52
2024-02-02T10:22:59.404Z,101658.64
2024-02-02T10:25:48.395Z,101661.84
2024-02-02T10:28:34.781Z,101663.98
2024-02-02T10:31:21.994Z,101658.87
2024-02-02T10:34:13.926Z,101655.44
2024-02-02T10:36:57.497Z,101653.66
2024-02-02T10:39:47.432Z,101653.00
2024-02-02T10:42:35.363Z,101646.21
2024-02-02T10:45:17.511Z,101647.02
2024-02-02T10:48:04.992Z,101642.06
2024-02-02T10:50:45.449Z,101634.02
2024-02-02T10:53:31.896Z,101643.12
2024-02-02T10:56:16.141Z,101643.86
2024-02-02T10:59:14.859Z,101647.00
2024-02-02T11:01:55.961Z,101637.41
2024-02-02T11:04:35.400Z,81306.43
2024-02-02T11:07:16.911Z,60975.66
2024-02-02T11:09:57.382Z,20324.55
2024-02-02T11:12:39.894Z,20321.09
2024-02-02T11:15:22.870Z,-1.00
2024-02-02T11:18:03.451Z,-1.00
2024-02-02T11:20:51.890Z,-1.00
2024-02-02T11:23:33.143Z,-1.00
2024-02-02T11:26:13.681Z,-1.00
2024-02-02T11:28:59.187Z,-1.00
2024-02-02T11:33:48.870Z,101574.66
2024-02-02T11:36:39.059Z,101569.16
2024-02-02T11:39:25.651Z,101572.90
2024-02-02T11:42:00.145Z,101572.30
2024-02-02T11:44:34.509Z,101570.45
2024-02-02T11:47:08.772Z,101564.86
2024-02-02T11:49:47.839Z,101561.65
2024-02-02T11:52:24.662Z,101551.85
2024-02-02T11:55:03.221Z,101547.38
2024-02-02T11:57:38.873Z,101546.27
2024-02-02T12:00:14.859Z,101547.84
2024-02-02T12:02:55.062Z,101544.73
2024-02-02T12:05:34.970Z,101542.88
2024-02-02T12:08:14.602Z,101541.20
2024-02-02T12:10:48.006Z,101536.13
2024-02-02T12:13:27.525Z,101535.53
2024-02-02T12:16:00.304Z,101534.30
2024-02-02T12:18:33.125Z,101530.13
2024-02-02T12:21:12.708Z,101517.58
2024-02-02T12:23:46.085Z,101515.64
2024-02-02T12:26:18.706Z,101515.31
2024-02-02T12:28:50.549Z,101507.54
2024-02-02T12:31:22.664Z,101494.89
2024-02-02T12:33:54.671Z,101484.91
2024-02-02T12:36:27.917Z,101477.65
2024-02-02T12:39:06.748Z,101473.27
2024-02-02T12:41:39.132Z,101470.06
2024-02-02T12:44:11.472Z,101467.10
2024-02-02T12:46:47.008Z,101457.09
2024-02-02T12:49:19.424Z,101457.66
2024-02-02T12:51:54.527Z,101458.13
2024-02-02T12:54:26.633Z,101452.06
2024-02-02T12:56:58.684Z,101451.09
2024-02-02T12:59:30.690Z,101448.03
2024-02-02T13:02:02.566Z,101451.50
2024-02-02T13:04:34.884Z,101446.11
2024-02-02T13:07:07.572Z,101435.57
2024-02-02T13:09:41.635Z,101439.27
2024-02-02T13:12:28.237Z,101435.30
2024-02-02T13:15:12.241Z,101431.09
2024-02-02T13:17:44.761Z,101426.60
2024-02-02T13:20:22.384Z,101423.48
2024-02-02T13:22:55.128Z,101421.16
2024-02-02T13:25:27.528Z,101406.06
2024-02-02T13:28:02.550Z,101391.82
2024-02-02T13:30:36.216Z,101376.53
2024-02-02T13:33:18.631Z,101362.09
2024-02-02T13:35:54.717Z,101344.23
2024-02-02T13:38:26.708Z,101335.58
2024-02-02T13:40:58.724Z,101345.92
2024-02-02T13:43:30.715Z,101353.89
2024-02-02T13:46:09.892Z,101355.70
2024-02-02T13:48:47.409Z,101362.20
2024-02-02T13:51:26.839Z,101360.55
2024-02-02T13:53:59.992Z,101352.30
2024-02-02T13:56:35.496Z,101352.30
2024-02-02T13:59:07.294Z,101342.70
2024-02-02T14:01:39.133Z,101347.19
2024-02-02T14:04:12.963Z,101342.30
2024-02-02T14:06:44.841Z,101343.80
2024-02-02T14:09:23.654Z,101342.89
2024-02-02T14:12:03.424Z,101335.96
2024-02-02T14:14:35.589Z,101327.98
2024-02-02T14:17:11.440Z,101328.62
2024-02-02T14:19:43.521Z,101325.43
2024-02-02T14:22:15.453Z,101320.63
2024-02-02T14:24:52.751Z,101316.59
2024-02-02T14:27:36.376Z,101313.76
2024-02-02T14:30:10.005Z,101308.17
2024-02-02T14:32:42.038Z,101295.42
2024-02-02T14:35:14.397Z,101295.86
2024-02-02T14:37:46.400Z,101294.15
2024-02-02T14:40:20.585Z,101285.21
2024-02-02T14:42:52.552Z,101278.14
2024-02-02T14:45:24.538Z,101278.88
2024-02-02T14:47:56.580Z,101270.17
2024-02-02T14:50:29.329Z,101257.03
2024-02-02T14:53:01.274Z,101242.70
2024-02-02T14:55:34.086Z,101235.98
2024-02-02T14:58:06.577Z,101231.70
2024-02-02T15:00:45.368Z,101230.41
2024-02-02T15:03:17.958Z,101235.23
2024-02-02T15:05:51.489Z,101231.48
2024-02-02T15:08:23.409Z,101229.05
2024-02-02T15:10:55.426Z,101227.55
2024-02-02T15:13:27.327Z,101231.44
2024-02-02T15:15:59.341Z,101230.33
2024-02-02T15:18:31.472Z,101223.58
2024-02-02T15:21:03.391Z,101228.54
2024-02-02T15:23:35.229Z,101220.46
2024-02-02T15:26:07.539Z,101218.75
2024-02-02T15:28:41.813Z,101214.77
2024-02-02T15:31:14.804Z,101211.89
2024-02-02T15:33:46.840Z,101210.29
2024-02-02T15:36:19.014Z,101207.92
2024-02-02T15:39:06.687Z,101199.06
2024-02-02T15:41:42.743Z,101194.68
2024-02-02T15:44:14.639Z,101193.62
2024-02-02T15:46:46.488Z,101189.05
2024-02-02T15:49:18.737Z,101187.60
2024-02-02T15:51:50.783Z,101179.38
2024-02-02T15:54:23.106Z,101177.02
2024-02-02T15:56:54.938Z,101173.33
2024-02-02T15:59:27.020Z,101169.42
2024-02-02T16:01:59.031Z,101164.05
2024-02-02T16:04:30.947Z,101160.70
2024-02-02T16:07:06.755Z,101151.77
2024-02-02T16:09:42.032Z,101161.74
2024-02-02T16:12:15.985Z,101153.33
2024-02-02T16:14:51.698Z,101144.93
2024-02-02T16:17:23.570Z,101140.66
2024-02-02T16:19:56.680Z,101126.27
2024-02-02T16:22:28.777Z,101127.95
2024-02-02T16:25:00.605Z,101125.02
2024-02-02T16:27:33.018Z,101124.06
2024-02-02T16:30:05.915Z,101118.52
2024-02-02T16:32:37.732Z,101114.96
2024-02-02T16:35:10.538Z,101108.19
2024-02-02T16:37:42.598Z,101098.48
2024-02-02T16:40:14.649Z,101093.89
2024-02-02T16:42:46.752Z,101094.40
2024-02-02T16:45:19.168Z,101084.45
2024-02-02T16:47:51.084Z,101079.55
2024-02-02T16:50:23.148Z,101075.05
2024-02-02T16:52:55.135Z,101075.55
2024-02-02T16:55:26.905Z,101071.02
2024-02-02T16:57:58.758Z,101067.27
2024-02-02T17:00:30.786Z,101065.14
2024-02-02T17:03:02.781Z,101059.70
2024-02-02T17:05:34.896Z,101048.55
2024-02-02T17:08:09.587Z,101040.79
2024-02-02T17:10:41.424Z,101028.23
2024-02-02T17:13:13.296Z,101029.59
2024-02-02T17:15:45.313Z,101032.37
2024-02-02T17:18:17.365Z,101031.35
2024-02-02T17:20:49.391Z,101030.30
2024-02-02T17:23:21.327Z,101028.11
2024-02-02T17:25:53.170Z,101017.78
2024-02-02T17:28:25.011Z,101013.98
2024-02-02T17:30:57.510Z,101019.39
2024-02-02T17:33:30.996Z,101008.42
2024-02-02T17:36:03.085Z,101010.00
2024-02-02T17:38:34.903Z,101009.98
2024-02-02T17:41:11.988Z,101006.70
2024-02-02T17:43:44.778Z,101005.73
2024-02-02T17:46:20.476Z,101000.53
2024-02-02T17:48:52.439Z,100991.38
2024-02-02T17:51:25.724Z,100989.63
2024-02-02T17:53:58.007Z,100981.41
2024-02-02T17:56:30.040Z,100983.94
2024-02-02T17:59:01.850Z,100979.81
2024-02-02T18:01:34.936Z,100977.95
2024-02-02T18:04:07.448Z,100979.27
2024-02-02T18:06:39.383Z,100973.89
2024-02-02T18:09:12.186Z,100971.25
2024-02-02T18:11:44.030Z,100963.80
2024-02-02T18:14:17.228Z,100963.04
2024-02-02T18:16:49.104Z,100963.17
2024-02-02T18:19:21.137Z,100962.73
2024-02-02T18:21:53.138Z,100960.01
2024-02-02T18:24:25.060Z,100954.77
2024-02-02T18:26:57.203Z,100955.91
2024-02-02T18:29:29.150Z,100949.10
2024-02-02T18:32:01.026Z,100954.97
2024-02-02T18:34:33.018Z,100948.02
2024-02-02T18:37:05.339Z,100945.17
2024-02-02T18:39:37.293Z,100948.30
2024-02-02T18:42:09.889Z,100947.67
2024-02-02T18:44:42.100Z,100941.23
2024-02-02T18:47:17.020Z,100936.14
2024-02-02T18:49:50.114Z,100934.17
2024-02-02T18:52:22.223Z,100922.44
2024-02-02T18:54:54.095Z,100926.05
2024-02-02T18:57:26.126Z,100928.75
2024-02-02T18:59:58.200Z,100926.50
2024-02-02T19:02:30.160Z,100919.51
2024-02-02T19:05:02.155Z,100917.63
2024-02-02T19:07:34.597Z,100919.95
2024-02-02T19:10:07.196Z,100919.79
2024-02-02T19:12:39.280Z,100916.39
2024-02-02T19:15:11.937Z,100917.26
2024-02-02T19:17:43.916Z,100919.90
2024-02-02T19:20:16.367Z,100923.94
2024-02-02T19:22:48.642Z,100921.41
2024-02-02T19:25:20.643Z,100927.28
2024-02-02T19:27:53.836Z,100928.89
2024-02-02T19:30:27.108Z,100928.75
2024-02-02T19:32:59.799Z,100927.43
2024-02-02T19:35:31.986Z,100925.19
2024-02-02T19:38:03.982Z,100916.45
2024-02-02T19:40:36.290Z,100901.80
2024-02-02T19:43:08.905Z,100905.00
2024-02-02T19:45:42.376Z,100902.45
2024-02-02T19:48:14.436Z,100904.23
2024-02-02T19:50:46.619Z,100901.72
2024-02-02T19:53:18.633Z,100898.80
2024-02-02T19:55:50.592Z,100892.95
2024-02-02T19:58:22.559Z,100890.85
2024-02-02T20:00:54.615Z,100890.89
2024-02-02T20:03:26.718Z,100887.33
2024-02-02T20:05:59.071Z,100891.48
2024-02-02T20:08:31.479Z,100888.73
2024-02-02T20:11:03.582Z,100880.80
2024-02-02T20:13:36.291Z,100878.04
2024-02-02T20:16:09.518Z,100870.79
2024-02-02T20:18:42.231Z,100864.66
2024-02-02T20:21:17.245Z,100860.41
2024-02-02T20:23:52.426Z,100850.85
2024-02-02T20:26:26.071Z,100855.35
2024-02-02T20:28:58.105Z,100853.35
2024-02-02T20:31:31.037Z,100855.36
2024-02-02T20:34:03.210Z,100856.67
2024-02-02T20:36:35.365Z,100847.42
2024-02-02T20:39:09.500Z,100842.84
2024-02-02T20:41:41.715Z,100838.17
2024-02-02T20:44:15.015Z,100835.52
2024-02-02T20:46:49.125Z,100837.92
2024-02-02T20:49:21.366Z,100837.59
2024-02-02T20:51:55.370Z,100833.64
2024-02-02T20:54:27.523Z,100829.88
2024-02-02T20:56:59.686Z,100822.88
2024-02-02T20:59:31.803Z,100820.98
2024-02-02T21:02:04.510Z,100821.81
2024-02-02T21:04:36.427Z,100821.66
2024-02-02T21:07:12.292Z,100812.04
2024-02-02T21:09:44.628Z,100807.54
2024-02-02T21:12:17.082Z,100809.08
2024-02-02T21:14:49.423Z,100805.04
2024-02-02T21:17:21.574Z,100799.88
2024-02-02T21:19:55.870Z,100795.33
2024-02-02T21:22:29.035Z,100778.42
2024-02-02T21:25:01.028Z,100775.58
2024-02-02T21:27:33.439Z,100777.42
2024-02-02T21:30:06.453Z,100771.19
2024-02-02T21:32:38.578Z,100768.74
2024-02-02T21:35:11.598Z,100765.41
2024-02-02T21:37:43.697Z,100761.31
2024-02-02T21:40:16.407Z,100759.75
2024-02-02T21:42:48.625Z,100756.02
2024-02-02T21:45:20.774Z,100758.26
2024-02-02T21:47:53.044Z,100757.27
2024-02-02T21:50:25.248Z,100754.10
2024-02-02T21:52:57.385Z,100763.52
2024-02-02T21:55:29.293Z,100770.23
2024-02-02T21:58:01.885Z,100762.91
2024-02-02T22:00:33.968Z,100755.26
2024-02-02T22:03:06.431Z,100742.17
2024-02-02T22:05:38.441Z,100751.33
2024-02-02T22:08:12.191Z,100748.30
2024-02-02T22:10:44.042Z,100745.48
2024-02-02T22:13:17.272Z,100739.53
2024-02-02T22:15:49.123Z,100734.11
2024-02-02T22:18:21.881Z,100728.09
2024-02-02T22:20:53.973Z,100729.69
2024-02-02T22:23:25.906Z,100728.27
2024-02-02T22:25:58.689Z,100729.95
2024-02-02T22:28:30.689Z,100723.04
2024-02-02T22:31:06.129Z,100728.56
2024-02-02T22:33:38.395Z,100734.14
2024-02-02T22:36:17.258Z,100734.14
2024-02-02T22:38:51.337Z,100731.69
2024-02-02T22:41:32.543Z,100732.92
2024-02-02T22:44:06.417Z,100736.02
2024-02-02T22:46:38.383Z,100742.20
2024-02-02T22:49:10.618Z,100740.67
2024-02-02T22:51:48.941Z,100734.09
2024-02-02T22:54:21.343Z,100723.50
2024-02-02T22:56:53.219Z,100720.83
2024-02-02T22:59:25.179Z,100721.86
2024-02-02T23:01:57.432Z,100728.09
2024-02-02T23:04:29.468Z,100729.79
2024-02-02T23:07:01.392Z,100737.89
2024-02-02T23:09:33.336Z,100740.15
2024-02-02T23:12:05.827Z,100738.05
2024-02-02T23:14:38.394Z,100732.79
2024-02-02T23:17:10.177Z,100727.26
2024-02-02T23:19:45.057Z,100719.67
2024-02-02T23:22:17.339Z,100716.96
2024-02-02T23:24:49.330Z,100716.91
2024-02-02T23:27:21.200Z,100721.02
2024-02-02T23:29:52.969Z,100716.08
2024-02-02T23:32:24.961Z,100717.79
2024-02-02T23:34:57.159Z,100716.12
2024-02-02T23:37:29.018Z,100700.15
2024-02-02T23:40:00.899Z,100694.09
2024-02-02T23:42:32.905Z,100694.29
2024-02-02T23:45:05.083Z,100687.13
2024-02-02T23:47:37.389Z,100692.30
2024-02-02T23:50:10.426Z,100687.75
2024-02-02T23:52:42.254Z,100683.55
2024-02-02T23:55:14.242Z,100681.73
2024-02-02T23:57:46.072Z,100680.04
